首页
METAR-TAF:

METAR-TAF

机场 :

阿卡普尔科, 墨西哥

纬度: 16-46N, 经度: 099-45W, 海拔: 5米

当前天气观测

该预报发布于48分钟前的20:46 UTC
风速8节,风向西转西南
温度 30°C
湿度 59%
气压 1011 hPa
能見度: 12.9公里
少量云层高于12000英尺

METAR: MMAA 152046Z 25008KT 8SM FEW120 30/21 A2984 RMK SLP101 57027 956 8/030 HZY DSNT TCU N NE NW

时间: 15:34 (21:34 UTC)

预报

该预报发布于5小时和5分钟前的16:29 UTC
预报有效从15日的 18点(UTC)到 16日的 24点(UTC)
风速10节,风向西转西南
能見度: 10公里
散云层高于3000英尺
散云层高于10000英尺
从 16日的 0200点(UTC)
风速5节,风向
能見度: 9.7公里
散云层高于2000英尺
散云层高于10000英尺
从 16日的 1600点(UTC)
风速10节,风向西转西南
能見度: 10公里
散云层高于3000英尺

TAF: MMAA 151629Z 1518/1624 24010KT P6SM SCT030 SCT100 TX30/1520Z TN24/1612Z FM160200 36005KT 6SM HZ SCT020 SCT100 FM161600 24010KT P6SM SCT030

超过4000个机场的气象观测和天气预报(METAR&TAF报告)。

可查询的气象台以黄色和红色小点在地图上表示。

将鼠标移到小点上方,可查看气象台名称。

然后点击查看天气观测和预报。

如需切换地图:点击带黑十字的绿色按钮放大地图;点击带横线的绿色按钮缩小地图;或者点击绿色箭头查看邻近地区的地图。


METAR-TAF: